Time;durP1;ratioP1;P1;durP2;ratioP2;P2;SDS_P1;SDS_P2;PMS_P1;PMS_P2;Temp;Humidity;BMP_temperature;BMP_pressure;BME280_temperature;BME280_humidity;BME280_pressure;Samples;Min_cycle;Max_cycle;Signal;HPM_P1;HPM_P2
2023/05/23 00:02:14;;;;;;;;;;;;;;;18.84;36.07;100201.78;4944631;27;98514;-70
2023/05/23 00:04:41;;;;;;;;;;;;;;;18.83;35.83;100202.13;4946022;27;98032;-70
2023/05/23 00:07:08;;;;;;;;;;;;;;;18.80;35.87;100198.13;4967921;27;98203;-69
2023/05/23 00:09:34;;;;;;;;;;;;;;;18.81;35.83;100193.47;4942836;27;97911;-70
2023/05/23 00:12:01;;;;;;;;;;;;;;;18.80;35.95;100198.13;4947534;27;98251;-62
2023/05/23 00:14:32;;;;;;;;;;;;;;;18.80;35.80;100198.13;4941681;27;97969;-69
2023/05/23 00:17:00;;;;;;;;;;;;;;;18.80;36.01;100200.84;4949221;27;98059;-70
2023/05/23 00:19:26;;;;;;;;;;;;;;;18.80;35.88;100200.06;4929349;28;98133;-69
2023/05/23 00:21:55;;;;;;;;;;;;;;;18.81;35.76;100197.00;4959111;27;98024;-69
2023/05/23 00:24:23;;;;;;;;;;;;;;;18.80;35.76;100205.53;4942363;27;97935;-61
2023/05/23 00:26:50;;;;;;;;;;;;;;;18.79;35.97;100207.44;4946816;27;98117;-70
2023/05/23 00:29:17;;;;;;;;;;;;;;;18.78;35.89;100203.09;4939526;28;98541;-69
2023/05/23 00:31:45;;;;;;;;;;;;;;;18.78;35.72;100207.75;4940275;27;99246;-61
2023/05/23 00:34:13;;;;;;;;;;;;;;;18.78;35.95;100213.22;4928703;27;98690;-61
2023/05/23 00:36:40;;;;;;;;;;;;;;;18.77;35.97;100217.88;4943505;28;98113;-70
2023/05/23 00:39:07;;;;;;;;;;;;;;;18.77;35.78;100219.81;4941399;27;97954;-70
2023/05/23 00:41:35;;;;;;;;;;;;;;;18.77;36.08;100222.56;4945220;27;98274;-61
2023/05/23 00:44:02;;;;;;;;;;;;;;;18.75;35.93;100225.63;4941520;27;97846;-70
2023/05/23 00:46:29;;;;;;;;;;;;;;;18.73;35.93;100216.94;4964247;27;98266;-71
2023/05/23 00:48:55;;;;;;;;;;;;;;;18.70;35.98;100214.84;4948929;27;99549;-62
2023/05/23 00:51:22;;;;;;;;;;;;;;;18.69;36.03;100204.25;4938917;28;98159;-61
2023/05/23 00:53:48;;;;;;;;;;;;;;;18.68;35.97;100208.13;4960540;27;98324;-62
2023/05/23 00:56:15;;;;;;;;;;;;;;;18.66;35.98;100205.69;4938871;27;98047;-70
2023/05/23 00:58:41;;;;;;;;;;;;;;;18.64;35.96;100214.22;4931342;28;97984;-69
2023/05/23 01:01:08;;;;;;;;;;;;;;;18.63;36.01;100207.16;4930809;27;100572;-62
2023/05/23 01:03:35;;;;;;;;;;;;;;;18.63;36.13;100209.91;4935723;27;99597;-62
2023/05/23 01:06:02;;;;;;;;;;;;;;;18.63;35.92;100209.09;4964535;28;97959;-69
2023/05/23 01:08:28;;;;;;;;;;;;;;;18.61;35.92;100208.63;4944778;28;98197;-62
2023/05/23 01:10:55;;;;;;;;;;;;;;;18.59;36.25;100211.69;4964799;28;101614;-62
2023/05/23 01:13:44;;;;;;;;;;;;;;;18.59;35.91;100202.69;4948721;28;97969;-62
2023/05/23 01:16:15;;;;;;;;;;;;;;;18.58;35.93;100218.25;4964142;27;99968;-61
2023/05/23 01:19:04;;;;;;;;;;;;;;;18.57;35.95;100216.66;4947481;27;97953;-61
2023/05/23 01:21:31;;;;;;;;;;;;;;;18.53;36.00;100215.72;4961084;28;98179;-69
2023/05/23 01:24:17;;;;;;;;;;;;;;;18.50;36.10;100219.09;4928977;28;98353;-61
2023/05/23 01:27:05;;;;;;;;;;;;;;;18.47;36.11;100217.03;4979668;27;98160;-70
2023/05/23 01:29:37;;;;;;;;;;;;;;;18.43;36.12;100224.25;4964329;27;97768;-69
2023/05/23 01:32:05;;;;;;;;;;;;;;;18.39;36.17;100213.19;4952517;27;98218;-61
2023/05/23 01:34:32;;;;;;;;;;;;;;;18.35;36.19;100211.41;4946900;27;97899;-69
2023/05/23 01:36:59;;;;;;;;;;;;;;;18.32;36.13;100212.09;4951113;27;99453;-61
2023/05/23 01:39:25;;;;;;;;;;;;;;;18.26;36.20;100205.19;4963309;27;97976;-61
2023/05/23 01:41:52;;;;;;;;;;;;;;;18.20;36.05;100210.03;4980946;27;98781;-69
2023/05/23 01:44:19;;;;;;;;;;;;;;;18.15;36.22;100199.28;4942890;28;98852;-61
2023/05/23 01:46:45;;;;;;;;;;;;;;;18.10;36.03;100199.44;4946531;27;98926;-61
2023/05/23 01:49:12;;;;;;;;;;;;;;;18.08;36.24;100201.72;4951240;27;98271;-68
2023/05/23 01:51:38;;;;;;;;;;;;;;;18.06;36.19;100187.59;4945324;27;98295;-62
2023/05/23 01:54:05;;;;;;;;;;;;;;;18.03;36.31;100183.56;4942770;27;98263;-70
2023/05/23 01:56:31;;;;;;;;;;;;;;;18.02;36.06;100183.91;4966244;27;98104;-69
2023/05/23 01:58:58;;;;;;;;;;;;;;;17.99;36.13;100176.38;4965035;27;98000;-69
2023/05/23 02:01:24;;;;;;;;;;;;;;;17.96;36.32;100175.13;4965053;27;98175;-70
2023/05/23 02:03:50;;;;;;;;;;;;;;;17.93;36.16;100175.75;4943575;27;99576;-70
2023/05/23 02:06:17;;;;;;;;;;;;;;;17.91;36.20;100180.72;4943086;27;98076;-70
2023/05/23 02:08:43;;;;;;;;;;;;;;;17.91;36.32;100178.78;4949071;28;98288;-70
2023/05/23 02:11:10;;;;;;;;;;;;;;;17.88;36.38;100176.72;4941961;27;97891;-62
2023/05/23 02:13:36;;;;;;;;;;;;;;;17.87;36.17;100169.66;4943692;27;97958;-61
2023/05/23 02:16:03;;;;;;;;;;;;;;;17.86;36.12;100178.16;4948408;28;98250;-69
2023/05/23 02:18:29;;;;;;;;;;;;;;;17.81;36.29;100181.06;4943648;27;98219;-69
2023/05/23 02:21:00;;;;;;;;;;;;;;;17.76;36.17;100183.94;4947236;27;116666;-61
2023/05/23 02:23:26;;;;;;;;;;;;;;;17.67;36.42;100183.91;4941975;28;98269;-70
2023/05/23 02:25:52;;;;;;;;;;;;;;;17.60;36.38;100187.13;4963608;27;98129;-69
2023/05/23 02:28:18;;;;;;;;;;;;;;;17.54;36.44;100191.13;4931454;27;99267;-61
2023/05/23 02:30:45;;;;;;;;;;;;;;;17.48;36.37;100183.44;4932063;28;98058;-61
2023/05/23 02:33:11;;;;;;;;;;;;;;;17.43;36.36;100187.91;4947794;27;99901;-61
2023/05/23 02:35:38;;;;;;;;;;;;;;;17.38;36.31;100179.13;4948962;27;98044;-62
2023/05/23 02:38:04;;;;;;;;;;;;;;;17.32;36.40;100178.44;4947890;27;98313;-70
2023/05/23 02:40:31;;;;;;;;;;;;;;;17.26;36.41;100171.56;4961324;28;99932;-70
2023/05/23 02:42:57;;;;;;;;;;;;;;;17.23;36.45;100176.84;4933841;27;98650;-69
2023/05/23 02:45:23;;;;;;;;;;;;;;;17.22;36.52;100180.69;4948274;27;98140;-70
2023/05/23 02:47:50;;;;;;;;;;;;;;;17.23;36.65;100171.41;4947538;27;98244;-70
2023/05/23 02:50:17;;;;;;;;;;;;;;;17.25;36.50;100178.16;4945312;27;98127;-70
2023/05/23 02:52:43;;;;;;;;;;;;;;;17.27;36.46;100169.66;4943540;27;98242;-62
2023/05/23 02:55:10;;;;;;;;;;;;;;;17.27;36.54;100165.00;4963011;27;98186;-69
2023/05/23 02:57:36;;;;;;;;;;;;;;;17.30;36.44;100166.28;4928670;27;98149;-61
2023/05/23 03:00:03;;;;;;;;;;;;;;;17.32;36.50;100162.09;4932773;28;99500;-69
2023/05/23 03:02:30;;;;;;;;;;;;;;;17.35;36.53;100163.41;4942836;27;98376;-61
2023/05/23 03:04:56;;;;;;;;;;;;;;;17.39;36.57;100158.91;4947606;27;98273;-61
2023/05/23 03:07:23;;;;;;;;;;;;;;;17.41;36.42;100160.22;4962495;28;99520;-61
2023/05/23 03:09:50;;;;;;;;;;;;;;;17.44;36.51;100158.75;4947845;28;98262;-61
2023/05/23 03:12:16;;;;;;;;;;;;;;;17.48;36.45;100148.81;4949834;27;99934;-70
2023/05/23 03:14:43;;;;;;;;;;;;;;;17.50;36.50;100143.84;4941132;28;98093;-69
2023/05/23 03:17:12;;;;;;;;;;;;;;;17.51;36.25;100140.00;4941797;28;98493;-69
2023/05/23 03:19:38;;;;;;;;;;;;;;;17.49;36.59;100139.53;4947890;27;98652;-69
2023/05/23 03:22:04;;;;;;;;;;;;;;;17.48;36.47;100139.84;4965462;27;98011;-69
2023/05/23 03:24:30;;;;;;;;;;;;;;;17.49;36.44;100135.97;4947608;27;98222;-61
2023/05/23 03:26:57;;;;;;;;;;;;;;;17.48;36.52;100135.19;4947011;27;98264;-62
2023/05/23 03:29:23;;;;;;;;;;;;;;;17.49;36.52;100130.53;4941448;28;99543;-70
2023/05/23 03:31:50;;;;;;;;;;;;;;;17.47;36.59;100122.69;4948058;28;98220;-69
2023/05/23 03:34:16;;;;;;;;;;;;;;;17.48;36.17;100118.03;4977906;27;98548;-61
2023/05/23 03:36:43;;;;;;;;;;;;;;;17.49;36.79;100119.63;4960340;28;98938;-62
2023/05/23 03:39:10;;;;;;;;;;;;;;;17.49;36.76;100112.28;4959868;28;97900;-61
2023/05/23 03:41:37;;;;;;;;;;;;;;;17.51;36.53;100114.69;4945218;28;98288;-70
2023/05/23 03:44:03;;;;;;;;;;;;;;;17.52;36.68;100116.28;4943821;27;99437;-62
2023/05/23 03:46:30;;;;;;;;;;;;;;;17.54;36.76;100119.50;4982381;27;97951;-63
2023/05/23 03:48:56;;;;;;;;;;;;;;;17.55;36.65;100124.59;4941263;27;98249;-70
2023/05/23 03:51:23;;;;;;;;;;;;;;;17.57;36.76;100129.75;4941964;27;98213;-70
2023/05/23 03:53:49;;;;;;;;;;;;;;;17.59;36.82;100128.28;4942418;28;98106;-70
2023/05/23 03:56:16;;;;;;;;;;;;;;;17.61;36.67;100130.72;4962712;27;98149;-70
2023/05/23 03:58:42;;;;;;;;;;;;;;;17.63;36.64;100133.91;4961734;27;99490;-69
2023/05/23 04:01:09;;;;;;;;;;;;;;;17.63;36.76;100140.16;4947168;28;98964;-62
2023/05/23 04:03:36;;;;;;;;;;;;;;;17.64;36.87;100138.22;4946660;27;98279;-70
2023/05/23 04:06:03;;;;;;;;;;;;;;;17.65;36.70;100142.56;4943365;27;98096;-62
2023/05/23 04:08:32;;;;;;;;;;;;;;;17.66;36.67;100147.69;4947413;27;100092;-63
2023/05/23 04:11:00;;;;;;;;;;;;;;;17.70;36.78;100155.22;4944708;27;97967;-70
2023/05/23 04:13:27;;;;;;;;;;;;;;;17.72;36.82;100148.31;4947122;27;98438;-71
2023/05/23 04:15:55;;;;;;;;;;;;;;;17.75;36.71;100155.88;4958271;28;97818;-70
2023/05/23 04:18:22;;;;;;;;;;;;;;;17.78;36.81;100157.97;4959659;27;98869;-62
2023/05/23 04:20:49;;;;;;;;;;;;;;;17.82;36.79;100167.09;4960354;27;98074;-70
2023/05/23 04:23:15;;;;;;;;;;;;;;;17.85;36.86;100161.00;4962245;27;99284;-62
2023/05/23 04:25:41;;;;;;;;;;;;;;;17.90;36.59;100160.03;4946175;28;98118;-62
2023/05/23 04:28:09;;;;;;;;;;;;;;;17.97;36.56;100159.56;4961992;27;109932;-71
2023/05/23 04:30:35;;;;;;;;;;;;;;;18.02;36.71;100160.16;4963711;27;97974;-62
2023/05/23 04:33:02;;;;;;;;;;;;;;;18.08;36.74;100155.34;4958767;27;98504;-71
2023/05/23 04:35:28;;;;;;;;;;;;;;;18.10;36.59;100153.88;4946806;27;98775;-63
2023/05/23 04:37:55;;;;;;;;;;;;;;;18.11;36.70;100147.31;4943140;27;98002;-62
2023/05/23 04:40:25;;;;;;;;;;;;;;;18.13;36.62;100147.00;4945327;27;97985;-70
2023/05/23 04:42:51;;;;;;;;;;;;;;;18.14;36.74;100154.03;4924112;27;98787;-63
2023/05/23 04:45:18;;;;;;;;;;;;;;;18.15;36.69;100153.72;4941804;27;99624;-62
2023/05/23 04:47:46;;;;;;;;;;;;;;;18.15;36.57;100152.91;4946246;27;100673;-70
2023/05/23 04:50:17;;;;;;;;;;;;;;;18.14;36.68;100149.38;4940968;27;100149;-71
2023/05/23 04:52:43;;;;;;;;;;;;;;;18.13;36.85;100152.44;4938024;28;98882;-70
2023/05/23 04:55:10;;;;;;;;;;;;;;;18.11;36.77;100154.69;4937735;28;98250;-70
2023/05/23 04:57:37;;;;;;;;;;;;;;;18.12;36.91;100156.31;4925999;28;98175;-70
2023/05/23 05:00:13;;;;;;;;;;;;;;;18.14;36.83;100159.50;4924502;27;98935;-70
2023/05/23 05:02:39;;;;;;;;;;;;;;;18.16;36.94;100165.44;4957712;27;98333;-62
2023/05/23 05:05:07;;;;;;;;;;;;;;;18.18;36.81;100165.91;4970260;27;97863;-70
2023/05/23 05:07:35;;;;;;;;;;;;;;;18.20;36.74;100162.88;4959928;27;98374;-71
2023/05/23 05:10:05;;;;;;;;;;;;;;;18.25;36.88;100166.22;4938529;27;98169;-62
2023/05/23 05:12:31;;;;;;;;;;;;;;;18.31;36.81;100169.53;4940465;27;98315;-71
2023/05/23 05:14:57;;;;;;;;;;;;;;;18.43;36.82;100163.41;4941090;27;98420;-71
2023/05/23 05:17:23;;;;;;;;;;;;;;;18.55;36.71;100160.78;4925840;27;99086;-63
2023/05/23 05:19:50;;;;;;;;;;;;;;;18.64;36.50;100158.84;4940352;27;98018;-71
2023/05/23 05:22:17;;;;;;;;;;;;;;;18.69;36.80;100157.84;4940838;27;98366;-63
2023/05/23 05:24:44;;;;;;;;;;;;;;;18.71;36.64;100161.09;4940810;27;98277;-71
2023/05/23 05:27:10;;;;;;;;;;;;;;;18.71;36.74;100150.97;4940022;27;98301;-62
2023/05/23 05:29:37;;;;;;;;;;;;;;;18.76;36.73;100160.91;4973949;27;98525;-70
2023/05/23 05:32:07;;;;;;;;;;;;;;;18.81;36.77;100158.75;4923850;27;98090;-70
2023/05/23 05:34:34;;;;;;;;;;;;;;;18.91;36.81;100160.34;4939852;27;98003;-71
2023/05/23 05:37:01;;;;;;;;;;;;;;;19.07;36.72;100155.09;4941261;27;98898;-62
2023/05/23 05:39:27;;;;;;;;;;;;;;;19.20;36.61;100155.97;4942169;27;98546;-70
2023/05/23 05:41:53;;;;;;;;;;;;;;;19.30;36.55;100150.91;4926265;27;98142;-63
2023/05/23 05:44:20;;;;;;;;;;;;;;;19.42;36.72;100154.84;4941044;28;98097;-71
2023/05/23 05:46:47;;;;;;;;;;;;;;;19.54;36.57;100160.38;4960709;27;98047;-63
2023/05/23 05:49:13;;;;;;;;;;;;;;;19.67;36.38;100153.84;4944966;28;99323;-71
2023/05/23 05:51:40;;;;;;;;;;;;;;;19.80;36.55;100155.47;4943533;28;98071;-63
2023/05/23 05:54:07;;;;;;;;;;;;;;;19.97;36.49;100151.78;4944773;28;98140;-71
2023/05/23 05:56:34;;;;;;;;;;;;;;;20.22;36.23;100151.84;4944454;27;98376;-70
2023/05/23 05:59:00;;;;;;;;;;;;;;;20.63;36.07;100155.53;4943895;27;98265;-70
2023/05/23 06:01:27;;;;;;;;;;;;;;;20.93;35.76;100154.16;4941735;28;98501;-62
2023/05/23 06:03:53;;;;;;;;;;;;;;;21.24;35.69;100155.50;4962099;28;98107;-70
2023/05/23 06:06:20;;;;;;;;;;;;;;;21.51;35.67;100157.50;4928845;27;100251;-70
2023/05/23 06:08:47;;;;;;;;;;;;;;;21.79;35.54;100170.41;4960148;27;99934;-62
2023/05/23 06:11:13;;;;;;;;;;;;;;;22.36;35.21;100171.13;4942897;27;99548;-70
2023/05/23 06:13:40;;;;;;;;;;;;;;;22.49;35.40;100178.16;4942068;27;98099;-62
2023/05/23 06:16:07;;;;;;;;;;;;;;;22.81;35.33;100169.91;4917841;28;98301;-70
2023/05/23 06:18:34;;;;;;;;;;;;;;;23.19;35.03;100181.03;4915315;28;99282;-62
2023/05/23 06:21:00;;;;;;;;;;;;;;;23.51;34.98;100180.91;4925009;28;98300;-70
2023/05/23 06:23:27;;;;;;;;;;;;;;;24.07;34.46;100174.16;4922751;28;98636;-62
2023/05/23 06:25:53;;;;;;;;;;;;;;;24.52;34.58;100173.38;4908128;28;98881;-62
2023/05/23 06:28:20;;;;;;;;;;;;;;;24.43;34.71;100175.59;4925241;28;98434;-70
2023/05/23 06:30:47;;;;;;;;;;;;;;;24.47;35.09;100176.47;4909429;28;98329;-70
2023/05/23 06:33:13;;;;;;;;;;;;;;;24.91;34.80;100171.25;4911264;28;98736;-62
2023/05/23 06:35:40;;;;;;;;;;;;;;;24.86;34.74;100171.56;4922337;28;99389;-69
2023/05/23 06:38:07;;;;;;;;;;;;;;;24.79;34.68;100178.94;4921733;28;98262;-62
2023/05/23 06:40:33;;;;;;;;;;;;;;;24.72;34.90;100174.13;4920804;28;98749;-62
2023/05/23 06:43:00;;;;;;;;;;;;;;;24.49;35.04;100179.66;4900476;28;98454;-62
2023/05/23 06:45:27;;;;;;;;;;;;;;;24.37;35.20;100182.56;4939827;28;98122;-62
2023/05/23 06:47:54;;;;;;;;;;;;;;;24.37;35.39;100183.34;4904927;28;98094;-70
2023/05/23 06:50:21;;;;;;;;;;;;;;;24.27;35.34;100181.19;4912955;28;99566;-70
2023/05/23 06:52:48;;;;;;;;;;;;;;;24.18;35.59;100181.44;4923760;28;98042;-70
2023/05/23 06:55:18;;;;;;;;;;;;;;;24.09;35.67;100180.91;4922881;28;98353;-69
2023/05/23 06:57:45;;;;;;;;;;;;;;;23.99;35.71;100185.03;4926768;28;98431;-70
2023/05/23 07:00:14;;;;;;;;;;;;;;;24.04;35.50;100185.88;4905763;28;98113;-70
2023/05/23 07:02:41;;;;;;;;;;;;;;;24.66;34.95;100183.84;4907896;28;98441;-70
2023/05/23 07:05:08;;;;;;;;;;;;;;;24.64;35.00;100180.66;4920286;28;98096;-69
2023/05/23 07:07:34;;;;;;;;;;;;;;;24.90;34.84;100177.13;4939563;28;98377;-68
2023/05/23 07:10:02;;;;;;;;;;;;;;;25.17;34.64;100173.22;4923284;28;98074;-70
2023/05/23 07:12:28;;;;;;;;;;;;;;;25.14;35.03;100185.00;4938370;28;98452;-70
2023/05/23 07:14:54;;;;;;;;;;;;;;;25.29;34.71;100183.25;4915645;27;101319;-62
2023/05/23 07:17:21;;;;;;;;;;;;;;;25.59;34.57;100180.47;4940014;27;98509;-69
2023/05/23 07:19:48;;;;;;;;;;;;;;;27.23;33.03;100191.47;4962320;27;98320;-62
2023/05/23 07:22:14;;;;;;;;;;;;;;;27.81;33.11;100188.59;4928215;28;97969;-62
2023/05/23 07:24:41;;;;;;;;;;;;;;;27.45;33.71;100195.94;4957741;27;99230;-70
2023/05/23 07:27:08;;;;;;;;;;;;;;;28.41;32.90;100192.69;4942852;27;98885;-70
2023/05/23 07:29:35;;;;;;;;;;;;;;;29.13;32.45;100201.00;4938089;28;98595;-70
2023/05/23 07:32:02;;;;;;;;;;;;;;;29.70;32.60;100190.50;4943191;27;98161;-69
2023/05/23 07:34:29;;;;;;;;;;;;;;;29.20;33.03;100185.13;4936448;27;98449;-70
2023/05/23 07:36:56;;;;;;;;;;;;;;;30.26;32.10;100188.63;4930209;28;98143;-70
2023/05/23 07:39:23;;;;;;;;;;;;;;;30.60;32.36;100189.94;4925322;27;99950;-62
2023/05/23 07:41:49;;;;;;;;;;;;;;;31.49;31.67;100192.66;4958456;27;100124;-70
2023/05/23 07:44:17;;;;;;;;;;;;;;;32.17;31.64;100194.53;4943070;27;98063;-62
2023/05/23 07:46:44;;;;;;;;;;;;;;;32.94;30.97;100187.34;4941294;28;98499;-62
2023/05/23 07:49:10;;;;;;;;;;;;;;;33.36;31.37;100193.31;4961331;27;97931;-70
2023/05/23 07:51:37;;;;;;;;;;;;;;;33.01;31.56;100189.97;4929621;28;98300;-62
2023/05/23 07:54:03;;;;;;;;;;;;;;;32.81;32.01;100181.56;4917704;27;99792;-62
2023/05/23 07:56:30;;;;;;;;;;;;;;;32.50;32.02;100201.22;4939977;27;98578;-70
2023/05/23 07:58:57;;;;;;;;;;;;;;;32.41;32.53;100200.97;4938595;27;98841;-70
2023/05/23 08:01:24;;;;;;;;;;;;;;;33.15;32.01;100200.88;4940594;28;97917;-62
2023/05/23 08:03:50;;;;;;;;;;;;;;;33.26;31.68;100202.69;4941011;28;98118;-70
2023/05/23 08:06:17;;;;;;;;;;;;;;;32.89;32.58;100201.75;4941656;28;100246;-70
2023/05/23 08:08:44;;;;;;;;;;;;;;;33.49;31.46;100205.44;4934328;28;98202;-70
2023/05/23 08:11:10;;;;;;;;;;;;;;;34.63;30.99;100211.28;4939084;27;98331;-62
2023/05/23 08:13:37;;;;;;;;;;;;;;;34.62;30.93;100215.28;4959870;27;98387;-62
2023/05/23 08:16:04;;;;;;;;;;;;;;;34.44;31.61;100201.72;4941888;28;98134;-70
2023/05/23 08:18:31;;;;;;;;;;;;;;;33.57;32.38;100206.09;4967555;27;98751;-70
2023/05/23 08:20:57;;;;;;;;;;;;;;;33.45;32.00;100202.72;4940249;27;98072;-62
2023/05/23 08:23:24;;;;;;;;;;;;;;;35.20;30.81;100208.22;4937491;27;98242;-70
2023/05/23 08:25:52;;;;;;;;;;;;;;;35.61;30.63;100204.69;4941042;28;98327;-62
2023/05/23 08:28:18;;;;;;;;;;;;;;;36.54;29.96;100205.38;4936952;27;99984;-70
2023/05/23 08:30:46;;;;;;;;;;;;;;;37.68;29.30;100205.41;4925526;28;98604;-70
2023/05/23 08:33:13;;;;;;;;;;;;;;;36.33;30.79;100203.28;4941686;28;98247;-69
2023/05/23 08:35:40;;;;;;;;;;;;;;;38.14;29.40;100197.97;4940167;27;98446;-62
2023/05/23 08:38:08;;;;;;;;;;;;;;;39.14;29.32;100207.06;4956653;27;98366;-62
2023/05/23 08:40:35;;;;;;;;;;;;;;;40.11;28.59;100201.41;4956238;27;98292;-62
2023/05/23 08:43:01;;;;;;;;;;;;;;;41.13;28.09;100205.13;4957913;27;99009;-62
2023/05/23 08:45:30;;;;;;;;;;;;;;;41.92;28.02;100207.31;4943138;27;100137;-62
2023/05/23 08:47:58;;;;;;;;;;;;;;;42.51;28.06;100200.72;4937166;28;98547;-68
2023/05/23 08:50:25;;;;;;;;;;;;;;;42.33;28.20;100203.81;4955997;27;97958;-68
2023/05/23 08:52:56;;;;;;;;;;;;;;;43.22;27.91;100206.97;4935106;27;98117;-71
2023/05/23 08:55:29;;;;;;;;;;;;;;;42.69;28.20;100201.75;4943244;27;97916;-70
2023/05/23 08:57:59;;;;;;;;;;;;;;;41.02;29.72;100199.28;4927691;27;98123;-62
2023/05/23 09:00:26;;;;;;;;;;;;;;;43.07;27.82;100192.13;4975055;27;98081;-62
2023/05/23 09:02:53;;;;;;;;;;;;;;;41.13;29.78;100196.66;4920527;28;98071;-62
2023/05/23 09:05:20;;;;;;;;;;;;;;;41.30;29.73;100199.78;4936475;28;99825;-62
2023/05/23 09:07:46;;;;;;;;;;;;;;;38.95;31.71;100195.06;4955477;27;99009;-69
2023/05/23 09:10:13;;;;;;;;;;;;;;;38.41;31.54;100194.50;4936026;28;99013;-62
2023/05/23 09:12:39;;;;;;;;;;;;;;;37.68;32.27;100192.13;4959853;27;98247;-62
2023/05/23 09:15:09;;;;;;;;;;;;;;;36.13;32.88;100195.09;4940434;27;98207;-70
2023/05/23 09:17:36;;;;;;;;;;;;;;;34.80;34.15;100194.47;4936318;27;98564;-69
2023/05/23 09:20:04;;;;;;;;;;;;;;;33.77;34.32;100201.25;4942515;27;98064;-62
2023/05/23 09:22:31;;;;;;;;;;;;;;;33.05;34.52;100201.09;4945412;27;98180;-69
2023/05/23 09:24:57;;;;;;;;;;;;;;;32.68;34.75;100194.56;4934510;27;98133;-61
2023/05/23 09:27:24;;;;;;;;;;;;;;;32.19;34.78;100206.06;4943944;27;98511;-62
2023/05/23 09:29:51;;;;;;;;;;;;;;;31.35;35.23;100205.94;4944669;28;98438;-69
2023/05/23 09:32:18;;;;;;;;;;;;;;;30.57;35.46;100200.69;4940959;28;99781;-69
2023/05/23 09:34:57;;;;;;;;;;;;;;;29.96;35.91;100213.41;4976412;27;98527;-67
2023/05/23 09:37:38;;;;;;;;;;;;;;;29.50;35.62;100219.91;4958439;27;99039;-62
2023/05/23 09:40:09;;;;;;;;;;;;;;;29.31;35.62;100216.38;4950097;27;98276;-61
2023/05/23 09:42:35;;;;;;;;;;;;;;;30.12;34.31;100216.47;4941475;28;98170;-62
2023/05/23 09:45:01;;;;;;;;;;;;;;;31.40;33.31;100211.88;4959259;27;98443;-62
2023/05/23 09:47:28;;;;;;;;;;;;;;;33.56;31.11;100219.25;4960397;27;99996;-62
2023/05/23 09:49:55;;;;;;;;;;;;;;;33.44;32.03;100217.06;4945710;28;97995;-69
2023/05/23 09:52:22;;;;;;;;;;;;;;;31.92;33.31;100214.41;4940225;27;98242;-69
2023/05/23 09:54:48;;;;;;;;;;;;;;;31.03;34.10;100218.19;4940711;27;98122;-62
2023/05/23 09:57:16;;;;;;;;;;;;;;;30.60;34.44;100217.75;4941223;27;98073;-69
2023/05/23 09:59:53;;;;;;;;;;;;;;;31.10;33.63;100218.13;4958966;27;98271;-69
2023/05/23 10:02:42;;;;;;;;;;;;;;;30.73;34.02;100221.59;4938518;27;98628;-62
2023/05/23 10:05:09;;;;;;;;;;;;;;;30.16;34.24;100219.25;4964741;28;98500;-62
2023/05/23 10:07:35;;;;;;;;;;;;;;;30.06;34.19;100221.69;4941138;27;98378;-69
2023/05/23 10:10:03;;;;;;;;;;;;;;;30.23;33.95;100220.00;4946262;27;98838;-62
2023/05/23 10:12:44;;;;;;;;;;;;;;;29.83;34.16;100229.75;4961571;27;98454;-69
2023/05/23 10:15:12;;;;;;;;;;;;;;;29.31;34.55;100235.03;4959768;27;98416;-69
2023/05/23 10:18:06;;;;;;;;;;;;;;;28.97;34.92;100241.03;4946386;27;98494;-62
2023/05/23 10:20:33;;;;;;;;;;;;;;;28.70;34.48;100237.84;4975289;27;98259;-62
2023/05/23 10:23:01;;;;;;;;;;;;;;;29.72;33.75;100240.88;4942884;27;98260;-69
2023/05/23 10:25:27;;;;;;;;;;;;;;;31.10;32.22;100247.94;4945853;27;100325;-69
2023/05/23 10:28:00;;;;;;;;;;;;;;;31.65;31.74;100244.19;4943239;27;98222;-62
2023/05/23 10:30:26;;;;;;;;;;;;;;;32.45;31.38;100254.66;4943720;27;98217;-69
2023/05/23 10:32:54;;;;;;;;;;;;;;;31.16;33.14;100257.41;4933036;28;98415;-69
2023/05/23 10:35:41;;;;;;;;;;;;;;;31.14;32.78;100254.25;4937021;27;97866;-69
2023/05/23 10:38:28;;;;;;;;;;;;;;;31.59;32.41;100257.75;4945064;27;99328;-69
2023/05/23 10:41:10;;;;;;;;;;;;;;;31.75;32.25;100258.00;4974669;27;98745;-69
2023/05/23 10:43:58;;;;;;;;;;;;;;;30.96;33.06;100257.19;4960141;27;98385;-62
2023/05/23 10:46:24;;;;;;;;;;;;;;;30.90;33.16;100265.22;4959612;27;98198;-69
2023/05/23 10:48:56;;;;;;;;;;;;;;;30.64;33.48;100249.09;4939687;27;98214;-61
2023/05/23 10:51:23;;;;;;;;;;;;;;;31.68;32.49;100260.06;4943112;28;98193;-61
2023/05/23 10:53:53;;;;;;;;;;;;;;;34.42;29.68;100260.09;4939761;27;98449;-61
2023/05/23 10:56:23;;;;;;;;;;;;;;;33.40;31.32;100261.03;4957284;28;99075;-69
2023/05/23 10:58:55;;;;;;;;;;;;;;;32.64;31.88;100267.13;4954264;28;99077;-62
2023/05/23 11:01:21;;;;;;;;;;;;;;;32.15;32.59;100263.06;4956619;27;98381;-69
2023/05/23 11:03:48;;;;;;;;;;;;;;;32.34;32.46;100259.59;4936954;27;100135;-68
2023/05/23 11:06:43;;;;;;;;;;;;;;;34.17;31.02;100262.69;4943465;27;98352;-61
2023/05/23 11:09:19;;;;;;;;;;;;;;;33.67;31.55;100269.31;4957785;27;98090;-61
2023/05/23 11:12:06;;;;;;;;;;;;;;;32.56;32.37;100273.25;4943982;27;98311;-68
2023/05/23 11:14:36;;;;;;;;;;;;;;;31.78;33.11;100268.28;4972890;27;98438;-68
2023/05/23 11:17:11;;;;;;;;;;;;;;;31.98;32.50;100281.59;4974624;27;99387;-61
2023/05/23 11:19:38;;;;;;;;;;;;;;;32.68;32.27;100276.22;4975148;27;98686;-69
2023/05/23 11:22:07;;;;;;;;;;;;;;;31.44;33.28;100275.81;4961394;27;98155;-69
2023/05/23 11:24:46;;;;;;;;;;;;;;;31.16;33.52;100283.22;4961794;28;98391;-68
2023/05/23 11:27:13;;;;;;;;;;;;;;;30.64;33.76;100276.91;4945143;27;101606;-61
2023/05/23 11:29:40;;;;;;;;;;;;;;;30.37;33.87;100276.69;4959385;27;98288;-69
2023/05/23 11:32:12;;;;;;;;;;;;;;;31.25;32.78;100282.78;4940959;27;98630;-69
2023/05/23 11:34:39;;;;;;;;;;;;;;;30.85;33.38;100287.09;4954662;27;99704;-68
2023/05/23 11:37:06;;;;;;;;;;;;;;;30.59;33.48;100283.69;4936639;27;98396;-68
2023/05/23 11:39:32;;;;;;;;;;;;;;;30.22;33.98;100281.53;4959305;27;98881;-61
2023/05/23 11:42:02;;;;;;;;;;;;;;;29.80;34.27;100289.66;4939258;28;97945;-61
2023/05/23 11:44:28;;;;;;;;;;;;;;;29.81;33.86;100302.31;4957575;27;100242;-62
2023/05/23 11:47:05;;;;;;;;;;;;;;;29.90;33.81;100284.44;4936109;28;98284;-61
2023/05/23 11:49:33;;;;;;;;;;;;;;;30.45;32.99;100290.13;4954178;28;98177;-61
2023/05/23 11:52:00;;;;;;;;;;;;;;;30.59;32.74;100300.38;4942137;27;98039;-61
2023/05/23 11:54:26;;;;;;;;;;;;;;;30.44;33.08;100290.53;4975323;27;97978;-62
2023/05/23 11:56:52;;;;;;;;;;;;;;;30.37;33.28;100298.94;4958414;27;98094;-62
2023/05/23 11:59:18;;;;;;;;;;;;;;;29.94;33.59;100296.31;4928115;27;98280;-61
2023/05/23 12:01:45;;;;;;;;;;;;;;;29.88;33.48;100298.75;4928137;27;98260;-61
2023/05/23 12:04:11;;;;;;;;;;;;;;;29.83;33.53;100302.72;4941533;28;98404;-62
2023/05/23 12:06:41;;;;;;;;;;;;;;;30.14;33.21;100302.97;4940727;27;98211;-61
2023/05/23 12:09:11;;;;;;;;;;;;;;;29.81;33.50;100299.56;4943644;27;98449;-69
2023/05/23 12:11:38;;;;;;;;;;;;;;;29.53;33.69;100303.19;4940411;27;98095;-69
2023/05/23 12:14:05;;;;;;;;;;;;;;;29.26;33.67;100302.03;4955073;28;98155;-68
2023/05/23 12:16:32;;;;;;;;;;;;;;;28.94;33.97;100307.56;4930579;28;98224;-69
2023/05/23 12:18:59;;;;;;;;;;;;;;;28.85;34.11;100303.22;4939427;28;98514;-68
2023/05/23 12:21:26;;;;;;;;;;;;;;;28.96;33.73;100296.88;4941042;28;98502;-68
2023/05/23 12:23:53;;;;;;;;;;;;;;;28.73;34.29;100294.47;4948238;27;98139;-68
2023/05/23 12:26:21;;;;;;;;;;;;;;;28.35;34.54;100310.63;4938067;27;98326;-69
2023/05/23 12:28:47;;;;;;;;;;;;;;;28.14;34.60;100309.38;4959365;27;98147;-61
2023/05/23 12:31:14;;;;;;;;;;;;;;;27.99;34.56;100304.97;4924633;28;98345;-68
2023/05/23 12:33:44;;;;;;;;;;;;;;;27.78;34.82;100305.66;4956595;28;99607;-69
2023/05/23 12:36:14;;;;;;;;;;;;;;;27.59;34.74;100300.41;4941395;27;98943;-68
2023/05/23 12:38:44;;;;;;;;;;;;;;;27.83;34.35;100297.00;4941959;27;98381;-68
2023/05/23 12:41:18;;;;;;;;;;;;;;;28.32;33.67;100298.34;4943944;27;98159;-67